Time;durP1;ratioP1;P1;durP2;ratioP2;P2;SDS_P1;SDS_P2;PMS_P1;PMS_P2;Temp;Humidity;BMP_temperature;BMP_pressure;BME280_temperature;BME280_humidity;BME280_pressure;Samples;Min_cycle;Max_cycle;Signal;HPM_P1;HPM_P2
2022/03/21 00:01:10;;;;;;;19.57;10.80;;;7.20;99.90;;;;;;4911105;29;20438;-44
2022/03/21 00:03:36;;;;;;;15.80;10.83;;;7.30;99.90;;;;;;4912328;29;20435;-43
2022/03/21 00:06:02;;;;;;;17.60;11.03;;;7.20;99.90;;;;;;4910010;29;20438;-44
2022/03/21 00:08:28;;;;;;;18.07;11.70;;;7.10;99.90;;;;;;4914042;29;20990;-44
2022/03/21 00:10:55;;;;;;;16.27;10.83;;;7.10;99.90;;;;;;4914633;29;20442;-44
2022/03/21 00:13:22;;;;;;;25.40;11.67;;;7.10;99.90;;;;;;4914960;29;20229;-44
2022/03/21 00:15:50;;;;;;;21.07;11.10;;;7.10;99.90;;;;;;4913879;29;20435;-44
2022/03/21 00:18:16;;;;;;;16.70;10.80;;;7.20;99.90;;;;;;4914362;29;21315;-44
2022/03/21 00:20:43;;;;;;;17.53;11.30;;;7.10;99.90;;;;;;4914277;29;20471;-44
2022/03/21 00:23:09;;;;;;;19.87;11.47;;;7.20;99.90;;;;;;4914440;29;20887;-44
2022/03/21 00:25:35;;;;;;;17.77;11.50;;;7.10;99.90;;;;;;4914804;29;20583;-44
2022/03/21 00:28:02;;;;;;;19.40;11.03;;;7.10;99.90;;;;;;4917927;29;20690;-43
2022/03/21 00:30:29;;;;;;;20.73;12.40;;;7.00;99.90;;;;;;4914159;29;20216;-44
2022/03/21 00:32:55;;;;;;;19.10;12.30;;;7.00;99.90;;;;;;4913630;29;20489;-44
2022/03/21 00:35:20;;;;;;;21.50;12.83;;;6.90;99.90;;;;;;4913644;29;20450;-44
2022/03/21 00:37:47;;;;;;;25.00;11.80;;;6.90;99.90;;;;;;4912842;29;20940;-44
2022/03/21 00:40:16;;;;;;;23.43;11.67;;;6.80;99.90;;;;;;4912968;29;20191;-44
2022/03/21 00:42:43;;;;;;;30.30;11.50;;;6.80;99.90;;;;;;4913683;29;20478;-44
2022/03/21 00:45:12;;;;;;;20.60;12.07;;;6.80;99.90;;;;;;4914093;29;20435;-44
2022/03/21 00:47:38;;;;;;;18.37;11.00;;;6.70;99.90;;;;;;4909817;29;20518;-44
2022/03/21 00:50:06;;;;;;;23.17;12.40;;;6.70;99.90;;;;;;4913607;29;20510;-45
2022/03/21 00:52:37;;;;;;;18.90;12.30;;;6.60;99.90;;;;;;4912793;29;20828;-44
2022/03/21 00:55:03;;;;;;;16.80;11.57;;;6.50;99.90;;;;;;4912800;29;20438;-45
2022/03/21 00:57:29;;;;;;;16.67;11.33;;;6.40;99.90;;;;;;4913722;29;20486;-44
2022/03/21 00:59:54;;;;;;;21.40;12.13;;;6.30;99.90;;;;;;4913453;29;21022;-43
2022/03/21 01:02:20;;;;;;;19.37;11.93;;;6.40;99.90;;;;;;4912454;29;20769;-44
2022/03/21 01:04:45;;;;;;;21.90;12.70;;;6.40;99.90;;;;;;4913907;29;20650;-44
2022/03/21 01:07:11;;;;;;;20.13;12.10;;;6.40;99.90;;;;;;4913616;29;20202;-44
2022/03/21 01:09:37;;;;;;;23.73;12.30;;;6.40;99.90;;;;;;4914186;29;20210;-45
2022/03/21 01:12:03;;;;;;;18.00;12.00;;;6.30;99.90;;;;;;4913872;29;20187;-44
2022/03/21 01:14:31;;;;;;;21.60;12.67;;;6.20;99.90;;;;;;4897024;29;20773;-44
2022/03/21 01:16:57;;;;;;;18.27;11.57;;;6.10;99.90;;;;;;4913738;29;20482;-44
2022/03/21 01:19:23;;;;;;;19.53;11.67;;;6.10;99.90;;;;;;4914251;29;20838;-43
2022/03/21 01:21:49;;;;;;;19.23;11.77;;;6.00;99.90;;;;;;4910244;29;20544;-44
2022/03/21 01:24:14;;;;;;;21.47;12.03;;;6.10;99.90;;;;;;4915228;29;20427;-44
2022/03/21 01:26:40;;;;;;;23.63;11.67;;;6.00;99.90;;;;;;4915629;29;20187;-44
2022/03/21 01:29:05;;;;;;;21.50;12.60;;;6.00;99.90;;;;;;4915247;29;20183;-44
2022/03/21 01:31:31;;;;;;;23.47;12.20;;;6.00;99.90;;;;;;4914469;29;20242;-44
2022/03/21 01:33:57;;;;;;;18.27;12.37;;;5.90;99.90;;;;;;4913336;29;20187;-43
2022/03/21 01:36:22;;;;;;;20.37;11.37;;;5.90;99.90;;;;;;4915115;29;20294;-43
2022/03/21 01:38:48;;;;;;;19.53;11.60;;;5.90;99.90;;;;;;4910788;29;20431;-44
2022/03/21 01:41:14;;;;;;;27.00;11.57;;;5.90;99.90;;;;;;4914205;29;20221;-45
2022/03/21 01:44:06;;;;;;;23.37;12.40;;;5.90;99.90;;;;;;4905892;29;20203;-43
2022/03/21 01:46:32;;;;;;;31.90;12.20;;;6.00;99.90;;;;;;4909946;29;20263;-43
2022/03/21 01:48:58;;;;;;;18.40;11.90;;;5.90;99.90;;;;;;4915159;29;20447;-44
2022/03/21 01:51:28;;;;;;;20.13;11.77;;;5.90;99.90;;;;;;4915447;29;20522;-43
2022/03/21 01:56:40;;;;;;;18.37;11.60;;;5.90;99.90;;;;;;4907159;29;20489;-43
2022/03/21 01:59:08;;;;;;;23.50;11.97;;;5.90;99.90;;;;;;4896879;29;20456;-43
2022/03/21 02:01:33;;;;;;;22.37;11.83;;;5.80;99.90;;;;;;4911407;29;20424;-44
2022/03/21 02:03:59;;;;;;;21.40;11.80;;;6.00;99.90;;;;;;4888616;29;20871;-44
2022/03/21 02:06:28;;;;;;;22.27;11.80;;;5.90;99.90;;;;;;4879091;29;20191;-44
2022/03/21 02:08:55;;;;;;;20.50;12.43;;;5.90;99.90;;;;;;4895567;29;20247;-43
2022/03/21 02:11:20;;;;;;;20.07;10.87;;;5.80;99.90;;;;;;4896023;29;20487;-43
2022/03/21 02:13:46;;;;;;;22.90;12.10;;;5.90;99.90;;;;;;4890405;29;20433;-43
2022/03/21 02:16:12;;;;;;;20.00;12.10;;;5.90;99.90;;;;;;4881717;29;20525;-44
2022/03/21 02:18:40;;;;;;;21.73;11.10;;;5.80;99.90;;;;;;4895821;29;20440;-43
2022/03/21 02:21:14;;;;;;;18.33;11.97;;;5.80;99.90;;;;;;4894792;29;20188;-43
2022/03/21 02:23:51;;;;;;;22.37;12.47;;;5.70;99.90;;;;;;4883659;29;20421;-43
2022/03/21 02:26:18;;;;;;;18.13;10.67;;;5.70;99.90;;;;;;4880755;29;20424;-44
2022/03/21 02:28:44;;;;;;;19.03;11.23;;;5.70;99.90;;;;;;4895698;29;20419;-43
2022/03/21 02:31:11;;;;;;;21.87;11.53;;;5.60;99.90;;;;;;4895011;29;20424;-43
2022/03/21 02:33:38;;;;;;;20.30;13.00;;;5.70;99.90;;;;;;4898152;29;20442;-44
2022/03/21 02:36:03;;;;;;;18.40;11.20;;;5.70;99.90;;;;;;4896769;29;21028;-43
2022/03/21 02:38:32;;;;;;;23.90;12.17;;;5.70;99.90;;;;;;4896024;29;20451;-44
2022/03/21 02:40:57;;;;;;;19.40;11.30;;;5.70;99.90;;;;;;4895035;29;20198;-43
2022/03/21 02:43:23;;;;;;;21.43;12.37;;;5.70;99.90;;;;;;4893637;29;20555;-46
2022/03/21 02:45:49;;;;;;;18.53;11.83;;;5.70;99.90;;;;;;4894279;29;20556;-47
2022/03/21 02:48:15;;;;;;;21.43;11.73;;;5.60;99.90;;;;;;4893554;29;20183;-47
2022/03/21 02:50:59;;;;;;;21.10;13.30;;;5.60;99.90;;;;;;4895296;29;20798;-47
2022/03/21 02:53:27;;;;;;;21.63;12.50;;;5.50;99.90;;;;;;4895319;29;20435;-47
2022/03/21 02:55:54;;;;;;;21.90;13.03;;;5.50;99.90;;;;;;4895313;29;21006;-47
2022/03/21 02:58:20;;;;;;;22.07;12.37;;;5.50;99.90;;;;;;4895917;29;20420;-47
2022/03/21 03:00:45;;;;;;;20.80;11.50;;;5.50;99.90;;;;;;4878289;29;20831;-47
2022/03/21 03:03:11;;;;;;;18.27;11.93;;;5.40;99.90;;;;;;4895070;29;20208;-47
2022/03/21 03:05:36;;;;;;;22.97;12.40;;;5.40;99.90;;;;;;4893864;29;20635;-47
2022/03/21 03:08:03;;;;;;;19.73;12.93;;;5.40;99.90;;;;;;4895615;29;20262;-47
2022/03/21 03:10:29;;;;;;;20.60;12.93;;;5.40;99.90;;;;;;4895491;29;20206;-47
2022/03/21 03:12:55;;;;;;;22.00;12.20;;;5.40;99.90;;;;;;4895230;29;20432;-47
2022/03/21 03:15:20;;;;;;;22.43;12.30;;;5.40;99.90;;;;;;4890353;29;20436;-47
2022/03/21 03:17:46;;;;;;;20.97;12.70;;;5.50;99.90;;;;;;4889202;29;20184;-47
2022/03/21 03:20:11;;;;;;;22.37;11.80;;;5.50;99.90;;;;;;4895606;29;20184;-47
2022/03/21 03:22:38;;;;;;;17.97;11.73;;;5.50;99.90;;;;;;4894834;29;20832;-47
2022/03/21 03:25:05;;;;;;;21.30;12.03;;;5.60;99.90;;;;;;4882884;29;20185;-47
2022/03/21 03:27:31;;;;;;;19.50;12.63;;;5.50;99.90;;;;;;4889926;29;20431;-47
2022/03/21 03:29:57;;;;;;;23.77;12.63;;;5.50;99.90;;;;;;4878637;29;20432;-47
2022/03/21 03:32:24;;;;;;;18.97;11.60;;;5.40;99.90;;;;;;4894235;29;20188;-47
2022/03/21 03:34:49;;;;;;;21.40;11.80;;;5.30;99.90;;;;;;4884647;29;21014;-47
2022/03/21 03:37:16;;;;;;;20.70;12.30;;;5.30;99.90;;;;;;4893390;29;20514;-47
2022/03/21 03:39:43;;;;;;;24.23;11.83;;;5.40;99.90;;;;;;4898956;29;20558;-46
2022/03/21 03:42:09;;;;;;;21.27;12.57;;;5.40;99.90;;;;;;4898099;29;20495;-47
2022/03/21 03:44:34;;;;;;;21.77;12.77;;;5.40;99.90;;;;;;4898302;29;20434;-47
2022/03/21 03:47:00;;;;;;;22.97;13.50;;;5.40;99.90;;;;;;4872245;29;20533;-47
2022/03/21 03:49:26;;;;;;;24.80;13.23;;;5.40;99.90;;;;;;4875132;29;20208;-46
2022/03/21 03:51:52;;;;;;;19.97;11.90;;;5.30;99.90;;;;;;4897533;29;20428;-48
2022/03/21 03:54:17;;;;;;;22.13;13.00;;;5.20;99.90;;;;;;4897065;29;20915;-48
2022/03/21 03:56:43;;;;;;;20.60;12.63;;;5.20;99.90;;;;;;4897806;29;20240;-47
2022/03/21 03:59:08;;;;;;;24.20;13.20;;;5.10;99.90;;;;;;4898641;29;20204;-47
2022/03/21 04:01:34;;;;;;;23.47;12.73;;;5.10;99.90;;;;;;4898385;29;20251;-47
2022/03/21 04:04:00;;;;;;;24.63;12.70;;;5.10;99.90;;;;;;4896299;29;20184;-47
2022/03/21 04:06:25;;;;;;;21.07;12.10;;;5.10;99.90;;;;;;4897429;29;20183;-47
2022/03/21 04:08:52;;;;;;;20.27;12.80;;;5.10;99.90;;;;;;4897347;29;20431;-47
2022/03/21 04:11:18;;;;;;;23.03;12.37;;;5.10;99.90;;;;;;4897591;29;20172;-47
2022/03/21 04:13:45;;;;;;;18.90;12.30;;;5.10;99.90;;;;;;4896423;29;20812;-47
2022/03/21 04:16:11;;;;;;;21.13;12.30;;;5.10;99.90;;;;;;4897189;29;20247;-47
2022/03/21 04:18:37;;;;;;;19.53;12.50;;;5.00;99.90;;;;;;4908966;29;20436;-47
2022/03/21 04:21:03;;;;;;;24.03;13.03;;;5.00;99.90;;;;;;4897186;29;20195;-47
2022/03/21 04:23:29;;;;;;;22.80;12.00;;;5.00;99.90;;;;;;4896782;29;20214;-43
2022/03/21 04:25:55;;;;;;;24.63;12.97;;;5.00;99.90;;;;;;4896224;29;20440;-43
2022/03/21 04:28:20;;;;;;;21.60;12.53;;;5.00;99.90;;;;;;4897612;29;20804;-42
2022/03/21 04:30:46;;;;;;;24.60;13.40;;;5.00;99.90;;;;;;4897232;29;20203;-43
2022/03/21 04:33:12;;;;;;;25.27;12.60;;;5.00;99.90;;;;;;4896794;29;20194;-44
2022/03/21 04:35:39;;;;;;;18.70;11.63;;;4.90;99.90;;;;;;4896890;29;20612;-47
2022/03/21 04:38:13;;;;;;;20.70;12.07;;;4.90;99.90;;;;;;4896688;29;20191;-46
2022/03/21 04:40:40;;;;;;;22.27;12.73;;;4.90;99.90;;;;;;4896929;29;20467;-47
2022/03/21 04:43:06;;;;;;;20.63;12.80;;;4.80;99.90;;;;;;4896591;29;20519;-48
2022/03/21 04:45:32;;;;;;;24.90;13.30;;;4.80;99.90;;;;;;4895787;29;20444;-47
2022/03/21 04:47:58;;;;;;;23.43;12.97;;;4.80;99.90;;;;;;4896351;29;20476;-46
2022/03/21 04:50:24;;;;;;;20.00;12.43;;;4.80;99.90;;;;;;4896307;29;20180;-46
2022/03/21 04:52:49;;;;;;;22.00;12.40;;;4.80;99.90;;;;;;4896760;29;20429;-46
2022/03/21 04:55:15;;;;;;;20.73;12.93;;;4.70;99.90;;;;;;4889982;29;20272;-47
2022/03/21 04:57:40;;;;;;;25.40;14.07;;;4.80;99.90;;;;;;4896589;29;20583;-47
2022/03/21 05:00:06;;;;;;;21.27;13.90;;;4.70;99.90;;;;;;4896197;29;20187;-44
2022/03/21 05:02:32;;;;;;;21.87;12.50;;;4.70;99.90;;;;;;4896593;29;20215;-44
2022/03/21 05:04:57;;;;;;;20.03;12.40;;;4.60;99.90;;;;;;4896149;29;20227;-42
2022/03/21 05:07:23;;;;;;;21.37;12.03;;;4.60;99.90;;;;;;4896047;29;20231;-43
2022/03/21 05:09:48;;;;;;;19.10;12.63;;;4.60;99.90;;;;;;4897143;29;20207;-43
2022/03/21 05:12:15;;;;;;;24.90;13.77;;;4.70;99.90;;;;;;4896256;29;20184;-46
2022/03/21 05:14:40;;;;;;;33.93;15.20;;;4.60;99.90;;;;;;4895782;29;20188;-46
2022/03/21 05:17:09;;;;;;;23.50;13.63;;;4.60;99.90;;;;;;4895930;29;20446;-47
2022/03/21 05:19:36;;;;;;;22.50;13.47;;;4.60;99.90;;;;;;4896368;29;20264;-47
2022/03/21 05:22:03;;;;;;;20.77;12.60;;;4.60;99.90;;;;;;4895623;29;20589;-47
2022/03/21 05:32:41;;;;;;;20.37;12.60;;;4.40;99.90;;;;;;4897186;29;20487;-47
2022/03/21 05:37:58;;;;;;;25.13;14.33;;;4.40;99.90;;;;;;4881484;29;20298;-47
2022/03/21 05:40:41;;;;;;;21.93;12.07;;;4.40;99.90;;;;;;4897210;29;20495;-47
2022/03/21 05:43:06;;;;;;;22.00;12.13;;;4.40;99.90;;;;;;4897227;29;20242;-48
2022/03/21 05:45:32;;;;;;;23.07;12.43;;;4.40;99.90;;;;;;4895502;29;20472;-47
2022/03/21 05:50:42;;;;;;;22.53;12.40;;;4.40;99.90;;;;;;4881380;29;20224;-47
2022/03/21 05:53:10;;;;;;;25.27;13.93;;;4.40;99.90;;;;;;4896997;29;20428;-48
2022/03/21 05:55:36;;;;;;;23.87;13.67;;;4.40;99.90;;;;;;4895990;29;20243;-48
2022/03/21 05:58:02;;;;;;;21.50;12.40;;;4.30;99.90;;;;;;4896654;29;20476;-48
2022/03/21 06:00:28;;;;;;;25.50;13.20;;;4.40;99.90;;;;;;4895698;29;20440;-48
2022/03/21 06:02:54;;;;;;;25.43;12.97;;;4.40;99.90;;;;;;4896670;29;20558;-48
2022/03/21 06:05:21;;;;;;;24.20;13.70;;;4.40;99.90;;;;;;4889152;29;20481;-48
2022/03/21 06:07:47;;;;;;;22.07;13.17;;;4.50;99.90;;;;;;4880916;29;20480;-48
2022/03/21 06:10:13;;;;;;;25.33;12.83;;;4.40;99.90;;;;;;4896302;29;20431;-48
2022/03/21 06:12:40;;;;;;;26.57;13.83;;;4.40;99.90;;;;;;4896101;29;20436;-47
2022/03/21 06:15:06;;;;;;;25.07;14.00;;;4.50;99.90;;;;;;4895671;29;20440;-48
2022/03/21 06:17:39;;;;;;;28.27;14.30;;;4.60;99.90;;;;;;4895822;29;20479;-48
2022/03/21 06:20:13;;;;;;;21.67;14.23;;;4.60;99.90;;;;;;4896411;29;20428;-48
2022/03/21 06:22:39;;;;;;;21.40;13.07;;;4.50;99.90;;;;;;4896048;29;20528;-48
2022/03/21 06:25:06;;;;;;;25.90;14.37;;;4.60;99.90;;;;;;4895899;29;20440;-48
2022/03/21 06:27:39;;;;;;;27.03;13.20;;;4.60;99.90;;;;;;4895269;29;20432;-47
2022/03/21 06:30:09;;;;;;;26.67;14.83;;;4.60;99.90;;;;;;4889126;29;20486;-47
2022/03/21 06:32:36;;;;;;;28.43;13.60;;;4.70;99.90;;;;;;4894979;29;20490;-48
2022/03/21 06:35:04;;;;;;;23.90;13.63;;;4.70;99.90;;;;;;4891988;29;20798;-48
2022/03/21 06:37:33;;;;;;;23.40;13.30;;;4.70;99.90;;;;;;4893277;29;20463;-47
2022/03/21 06:39:58;;;;;;;27.53;14.57;;;4.80;99.90;;;;;;4883056;29;20436;-47
2022/03/21 06:42:24;;;;;;;25.80;13.13;;;4.80;99.90;;;;;;4893072;29;20487;-48
2022/03/21 06:44:50;;;;;;;35.57;14.53;;;4.90;99.90;;;;;;4894590;29;20857;-47
2022/03/21 06:47:17;;;;;;;26.27;13.57;;;5.00;99.90;;;;;;4878199;29;20575;-48
2022/03/21 06:49:43;;;;;;;23.87;13.70;;;5.00;99.90;;;;;;4878911;29;20443;-57
2022/03/21 06:52:09;;;;;;;25.43;14.10;;;5.10;99.90;;;;;;4895687;29;20586;-47
2022/03/21 06:54:36;;;;;;;23.77;14.70;;;5.30;99.90;;;;;;4894889;29;20897;-43
2022/03/21 06:57:03;;;;;;;28.57;14.80;;;5.30;99.90;;;;;;4887972;29;20250;-43
2022/03/21 06:59:29;;;;;;;22.43;13.43;;;5.40;99.90;;;;;;4895128;29;20431;-44
2022/03/21 07:01:58;;;;;;;24.43;14.00;;;5.40;99.90;;;;;;4895302;29;20567;-44
2022/03/21 07:04:25;;;;;;;24.47;14.17;;;5.60;99.90;;;;;;4895296;29;20924;-43
2022/03/21 07:06:51;;;;;;;24.77;14.07;;;5.70;99.90;;;;;;4893587;29;20428;-43
2022/03/21 07:09:16;;;;;;;26.20;15.03;;;5.80;99.90;;;;;;4893928;29;20862;-51
2022/03/21 07:11:42;;;;;;;25.47;14.63;;;5.90;99.90;;;;;;4895074;29;20698;-43
2022/03/21 07:14:08;;;;;;;31.63;15.70;;;6.00;99.90;;;;;;4899238;29;20195;-47
2022/03/21 07:16:34;;;;;;;31.13;15.03;;;5.90;99.90;;;;;;4898006;29;20611;-48
2022/03/21 07:19:00;;;;;;;26.30;16.13;;;5.90;99.90;;;;;;4898434;29;20187;-47
2022/03/21 07:21:25;;;;;;;25.53;13.90;;;5.90;99.90;;;;;;4892346;29;20437;-48
2022/03/21 07:23:51;;;;;;;26.20;14.40;;;5.90;99.90;;;;;;4898144;29;20223;-49
2022/03/21 07:26:16;;;;;;;22.07;13.47;;;6.10;99.90;;;;;;4894288;29;20187;-52
2022/03/21 07:28:42;;;;;;;25.20;14.90;;;6.50;99.90;;;;;;4899047;29;20653;-49
2022/03/21 07:31:11;;;;;;;28.43;14.80;;;6.90;99.90;;;;;;4898451;29;20191;-49
2022/03/21 07:33:40;;;;;;;24.40;15.20;;;7.10;99.90;;;;;;4899045;29;20184;-48
2022/03/21 07:36:07;;;;;;;25.00;14.93;;;7.30;99.90;;;;;;4893906;29;20447;-48
2022/03/21 07:38:33;;;;;;;23.60;13.77;;;7.40;99.90;;;;;;4897964;29;20456;-47
2022/03/21 07:40:59;;;;;;;23.63;13.80;;;7.50;99.90;;;;;;4900661;29;20451;-49
2022/03/21 07:43:31;;;;;;;25.90;15.33;;;7.80;99.90;;;;;;4902021;29;20993;-48
2022/03/21 07:48:42;;;;;;;22.83;14.10;;;8.20;99.90;;;;;;4890532;29;20508;-49
2022/03/21 07:51:07;;;;;;;22.20;13.80;;;8.60;99.90;;;;;;4898117;29;20439;-49
2022/03/21 07:53:33;;;;;;;25.67;15.90;;;8.80;99.90;;;;;;4898053;29;20448;-49
2022/03/21 07:56:00;;;;;;;22.63;14.87;;;8.70;99.90;;;;;;4897609;29;20200;-48
2022/03/21 07:58:26;;;;;;;25.23;15.50;;;8.90;99.90;;;;;;4898457;29;20506;-47
2022/03/21 08:00:52;;;;;;;26.90;14.87;;;9.00;99.90;;;;;;4897775;29;20475;-48
2022/03/21 08:03:17;;;;;;;27.37;14.80;;;8.80;99.90;;;;;;4899711;29;20507;-48
2022/03/21 08:05:43;;;;;;;23.97;14.30;;;8.70;99.90;;;;;;4897239;29;20187;-49
2022/03/21 08:08:09;;;;;;;22.00;14.30;;;9.00;99.90;;;;;;4896852;29;20248;-48
2022/03/21 08:10:35;;;;;;;24.00;14.67;;;9.50;99.90;;;;;;4898673;29;20227;-49
2022/03/21 08:13:01;;;;;;;23.20;15.93;;;9.70;99.90;;;;;;4898693;29;20424;-48
2022/03/21 08:15:27;;;;;;;27.23;16.03;;;10.00;99.90;;;;;;4898253;29;20511;-50
2022/03/21 08:17:58;;;;;;;21.37;14.30;;;10.00;99.90;;;;;;4898084;29;20778;-49
2022/03/21 08:20:26;;;;;;;24.30;15.30;;;10.10;99.90;;;;;;4898358;29;20180;-49
2022/03/21 08:22:52;;;;;;;25.43;16.30;;;10.00;99.90;;;;;;4897262;29;20949;-48
2022/03/21 08:25:20;;;;;;;26.10;15.10;;;9.90;99.90;;;;;;4893867;29;20556;-49
2022/03/21 08:27:47;;;;;;;24.70;15.13;;;9.90;99.90;;;;;;4897590;29;20175;-50
2022/03/21 08:30:15;;;;;;;23.33;15.77;;;10.20;99.90;;;;;;4898103;29;20527;-49
2022/03/21 08:32:45;;;;;;;26.23;15.00;;;10.50;99.90;;;;;;4897079;29;20698;-49
2022/03/21 08:35:10;;;;;;;27.70;15.33;;;11.00;99.90;;;;;;4896457;29;20471;-47
2022/03/21 08:37:36;;;;;;;30.07;16.07;;;11.40;99.90;;;;;;4897083;29;20440;-48
2022/03/21 08:40:02;;;;;;;22.80;15.30;;;11.60;99.90;;;;;;4897576;29;20643;-48
2022/03/21 08:42:29;;;;;;;23.93;16.07;;;11.80;99.90;;;;;;4896876;29;20706;-47
2022/03/21 08:44:55;;;;;;;26.10;15.93;;;11.80;99.90;;;;;;4896270;29;20810;-48
2022/03/21 08:47:21;;;;;;;24.13;15.63;;;12.00;99.90;;;;;;4897620;29;20562;-48
2022/03/21 08:49:46;;;;;;;32.50;15.87;;;12.00;99.90;;;;;;4879905;29;21334;-49
2022/03/21 08:52:13;;;;;;;28.33;15.90;;;11.90;99.90;;;;;;4897522;29;20207;-47
2022/03/21 08:54:39;;;;;;;26.33;15.50;;;12.00;99.90;;;;;;4894706;29;20226;-47
2022/03/21 08:57:05;;;;;;;22.13;14.40;;;12.20;99.90;;;;;;4897075;29;20523;-48
2022/03/21 08:59:31;;;;;;;27.60;15.23;;;12.40;99.90;;;;;;4896915;29;20447;-49
2022/03/21 09:01:57;;;;;;;23.43;14.90;;;12.60;99.90;;;;;;4896807;29;20468;-49
2022/03/21 09:04:23;;;;;;;23.53;15.43;;;12.80;99.90;;;;;;4870388;29;20429;-48
2022/03/21 09:06:48;;;;;;;25.47;14.80;;;13.00;99.90;;;;;;4896511;29;20242;-48
2022/03/21 09:09:15;;;;;;;23.93;15.10;;;13.00;99.90;;;;;;4897198;29;20192;-48
2022/03/21 09:11:41;;;;;;;22.60;15.33;;;13.00;99.90;;;;;;4896984;29;20187;-48
2022/03/21 09:14:08;;;;;;;23.17;15.13;;;12.70;99.90;;;;;;4894065;29;20498;-48
2022/03/21 09:16:34;;;;;;;23.20;15.60;;;12.60;99.90;;;;;;4897500;29;20794;-47
2022/03/21 09:19:00;;;;;;;24.57;15.43;;;12.60;99.90;;;;;;4896833;29;20432;-48
2022/03/21 09:21:25;;;;;;;24.70;14.67;;;12.60;99.90;;;;;;4897052;29;20459;-48
2022/03/21 09:23:51;;;;;;;23.50;14.93;;;12.70;99.90;;;;;;4898467;29;20313;-47
2022/03/21 09:26:16;;;;;;;25.00;15.67;;;12.80;99.90;;;;;;4914036;29;20191;-48
2022/03/21 09:28:43;;;;;;;24.80;14.93;;;12.70;99.90;;;;;;4891860;29;20194;-47
2022/03/21 09:31:10;;;;;;;24.60;14.97;;;12.70;99.90;;;;;;4898157;29;20211;-48
2022/03/21 09:33:36;;;;;;;28.13;15.17;;;12.40;99.90;;;;;;4899121;29;20481;-48
2022/03/21 09:36:03;;;;;;;26.60;15.53;;;12.20;99.90;;;;;;4901258;29;21280;-47
2022/03/21 09:38:28;;;;;;;22.17;15.03;;;12.30;99.90;;;;;;4896158;29;20436;-48
2022/03/21 09:40:54;;;;;;;22.80;14.63;;;12.40;99.90;;;;;;4896463;29;20553;-44
2022/03/21 09:43:23;;;;;;;25.90;15.53;;;12.40;99.90;;;;;;4895829;29;20318;-44
2022/03/21 09:45:49;;;;;;;25.47;16.03;;;11.80;99.90;;;;;;4895507;29;20543;-44
2022/03/21 09:48:17;;;;;;;24.23;15.37;;;11.80;99.90;;;;;;4896610;29;20518;-44
2022/03/21 09:50:45;;;;;;;23.00;15.70;;;12.10;99.90;;;;;;4896703;29;20176;-45
2022/03/21 09:53:13;;;;;;;23.57;15.93;;;12.30;99.90;;;;;;4896598;29;20427;-44
2022/03/21 09:55:39;;;;;;;26.30;15.73;;;12.30;99.90;;;;;;4893260;29;20455;-44
2022/03/21 09:58:05;;;;;;;25.93;15.53;;;12.30;99.90;;;;;;4896066;29;20486;-44
2022/03/21 10:00:32;;;;;;;25.77;15.73;;;12.60;99.90;;;;;;4891848;29;20907;-43
2022/03/21 10:02:58;;;;;;;27.50;15.40;;;12.70;99.90;;;;;;4906444;29;20562;-44
2022/03/21 10:05:38;;;;;;;46.77;15.27;;;12.60;99.90;;;;;;4889302;29;20433;-44
2022/03/21 10:08:12;;;;;;;24.07;15.27;;;12.80;99.90;;;;;;4896985;29;20445;-44
2022/03/21 10:10:38;;;;;;;20.77;15.23;;;12.70;99.90;;;;;;4896430;29;20429;-44
2022/03/21 10:13:09;;;;;;;23.87;15.93;;;12.80;99.90;;;;;;4896068;29;20436;-43
2022/03/21 10:15:37;;;;;;;24.83;15.40;;;12.80;99.90;;;;;;4895209;29;20531;-44
2022/03/21 10:18:06;;;;;;;24.27;16.00;;;12.90;99.90;;;;;;4887707;29;20575;-44
2022/03/21 10:20:33;;;;;;;22.67;15.60;;;13.20;99.90;;;;;;4896109;29;20467;-43
2022/03/21 10:23:18;;;;;;;23.20;15.97;;;13.30;99.90;;;;;;4895515;29;20467;-44
2022/03/21 10:25:44;;;;;;;24.20;14.93;;;13.40;99.90;;;;;;4894974;29;20942;-44
2022/03/21 10:28:10;;;;;;;22.97;15.60;;;13.60;99.90;;;;;;4894705;29;20440;-43
2022/03/21 10:30:43;;;;;;;27.30;15.90;;;13.70;99.90;;;;;;4895943;29;20259;-44
2022/03/21 10:33:08;;;;;;;22.20;14.07;;;13.60;99.90;;;;;;4896029;29;20774;-45
2022/03/21 10:35:46;;;;;;;31.20;16.97;;;13.50;99.90;;;;;;4895276;29;20475;-44
2022/03/21 10:38:12;;;;;;;21.50;15.73;;;13.60;99.90;;;;;;4894732;29;20662;-43
2022/03/21 10:40:40;;;;;;;23.90;15.37;;;13.60;99.90;;;;;;4885680;29;20436;-44
2022/03/21 10:43:09;;;;;;;26.47;15.40;;;13.60;99.90;;;;;;4889854;29;20467;-45
2022/03/21 10:45:35;;;;;;;23.40;16.00;;;13.50;99.90;;;;;;4895621;29;20484;-44
2022/03/21 10:48:04;;;;;;;25.53;15.50;;;13.80;99.90;;;;;;4894605;29;20440;-43
2022/03/21 10:50:32;;;;;;;35.77;16.67;;;14.30;99.90;;;;;;4896179;29;20184;-43
2022/03/21 10:53:17;;;;;;;26.73;15.30;;;14.70;99.90;;;;;;4895066;29;20499;-43
2022/03/21 10:55:45;;;;;;;25.07;16.07;;;15.30;99.90;;;;;;4889186;29;20523;-44
2022/03/21 10:58:13;;;;;;;24.87;16.00;;;15.80;99.90;;;;;;4894223;29;20464;-44
2022/03/21 11:00:39;;;;;;;24.63;16.07;;;16.40;99.90;;;;;;4894785;29;20420;-43
2022/03/21 11:03:09;;;;;;;20.20;15.70;;;17.10;99.90;;;;;;4890621;29;20474;-43
2022/03/21 11:05:42;;;;;;;21.37;15.37;;;16.70;99.90;;;;;;4894696;29;21285;-43
2022/03/21 11:08:11;;;;;;;23.70;15.00;;;16.60;99.90;;;;;;4894263;29;20436;-43
2022/03/21 11:10:38;;;;;;;23.87;15.30;;;16.60;99.90;;;;;;4895334;29;20821;-44
2022/03/21 11:13:05;;;;;;;21.70;15.43;;;16.70;99.90;;;;;;4895194;29;20435;-44
2022/03/21 11:15:33;;;;;;;27.33;16.67;;;17.30;99.90;;;;;;4893380;29;20527;-44
2022/03/21 11:17:59;;;;;;;22.93;16.00;;;17.70;99.90;;;;;;4886168;29;20452;-45
2022/03/21 11:20:26;;;;;;;19.83;15.20;;;17.90;99.90;;;;;;4895500;29;20428;-45
2022/03/21 11:22:55;;;;;;;22.40;15.30;;;17.70;99.90;;;;;;4878764;29;20222;-45
2022/03/21 11:25:22;;;;;;;24.07;15.60;;;18.10;99.90;;;;;;4894596;29;20424;-44
2022/03/21 11:28:26;;;;;;;28.93;16.80;;;18.50;99.90;;;;;;4894274;29;20443;-44
2022/03/21 11:31:17;;;;;;;27.10;15.13;;;18.40;99.90;;;;;;4895116;29;20443;-44
2022/03/21 11:34:01;;;;;;;24.30;16.93;;;18.50;99.90;;;;;;4895309;29;20447;-44
2022/03/21 11:36:30;;;;;;;29.63;15.93;;;18.00;99.90;;;;;;4894339;29;20502;-44
2022/03/21 11:39:01;;;;;;;24.17;15.63;;;17.70;99.90;;;;;;4895221;29;20442;-49
2022/03/21 11:41:28;;;;;;;24.40;15.97;;;17.40;99.90;;;;;;4894956;29;20443;-47
2022/03/21 11:44:06;;;;;;;23.13;15.97;;;17.90;99.90;;;;;;4895535;29;20459;-47
2022/03/21 11:46:37;;;;;;;24.30;17.13;;;18.60;99.90;;;;;;4893441;29;20629;-47
2022/03/21 11:49:17;;;;;;;22.33;15.60;;;18.90;99.90;;;;;;4894172;29;20941;-48
2022/03/21 11:51:44;;;;;;;22.77;16.07;;;19.10;99.90;;;;;;4894410;29;20432;-47
2022/03/21 11:54:30;;;;;;;26.30;17.20;;;19.50;99.90;;;;;;4894753;29;20516;-47
2022/03/21 11:57:09;;;;;;;23.00;16.00;;;19.50;99.90;;;;;;4880442;29;20491;-48
2022/03/21 11:59:35;;;;;;;35.07;16.50;;;19.10;99.90;;;;;;4893687;29;20459;-48
2022/03/21 12:02:09;;;;;;;29.30;16.53;;;19.30;99.90;;;;;;4898703;29;20467;-48
2022/03/21 12:04:37;;;;;;;24.20;17.57;;;19.20;99.90;;;;;;4898696;29;20716;-48
2022/03/21 12:07:11;;;;;;;24.00;16.33;;;19.40;99.90;;;;;;4899334;29;21605;-47
2022/03/21 12:09:51;;;;;;;21.83;16.03;;;19.30;99.90;;;;;;4903171;29;20434;-44
2022/03/21 12:12:18;;;;;;;25.10;17.33;;;19.40;99.90;;;;;;4901593;29;20428;-44
2022/03/21 12:14:44;;;;;;;23.20;17.03;;;19.50;99.90;;;;;;4890557;29;20496;-48
2022/03/21 12:17:10;;;;;;;20.30;15.87;;;19.30;99.90;;;;;;4888257;29;20531;-48
2022/03/21 12:20:07;;;;;;;23.77;17.20;;;19.70;99.90;;;;;;4901819;29;20522;-48
2022/03/21 12:22:32;;;;;;;22.30;16.23;;;19.70;99.90;;;;;;4914380;29;20247;-48
2022/03/21 12:25:07;;;;;;;22.40;15.57;;;19.40;99.90;;;;;;4898572;29;20970;-48
2022/03/21 12:27:33;;;;;;;28.10;16.27;;;19.50;99.90;;;;;;4898063;29;20458;-48
2022/03/21 12:30:31;;;;;;;22.30;14.90;;;19.20;99.90;;;;;;4898067;29;20442;-48
2022/03/21 12:33:01;;;;;;;23.47;16.60;;;18.80;99.90;;;;;;4898358;29;21004;-48
2022/03/21 12:35:32;;;;;;;24.13;16.00;;;19.00;99.90;;;;;;4890223;29;20989;-48
2022/03/21 12:38:14;;;;;;;23.10;16.53;;;19.10;99.90;;;;;;4900091;29;20448;-48
2022/03/21 12:40:46;;;;;;;23.47;16.70;;;19.10;99.90;;;;;;4897687;29;20450;-49
2022/03/21 12:43:13;;;;;;;21.90;16.23;;;19.20;99.90;;;;;;4898327;29;20472;-48
2022/03/21 12:45:38;;;;;;;23.90;15.70;;;19.50;99.90;;;;;;4895205;29;21016;-48
2022/03/21 12:48:07;;;;;;;21.00;16.67;;;19.80;99.90;;;;;;4896930;29;20545;-48
2022/03/21 12:50:34;;;;;;;26.20;16.30;;;20.10;99.90;;;;;;4899888;29;20657;-48
2022/03/21 12:53:04;;;;;;;24.93;16.63;;;19.70;99.90;;;;;;4903033;29;20471;-48
2022/03/21 12:55:31;;;;;;;24.00;15.73;;;19.30;99.90;;;;;;4897611;29;20447;-48